sensor_id;sensor_type;location;lat;lon;timestamp;pressure;altitude;pressure_sealevel;temperature;humidity
73692;BME280;61996;49.910;35.562;2022-11-20T00:00:31;99701.91;;;18.25;44.77
73692;BME280;61996;49.910;35.562;2022-11-20T00:03:34;99701.53;;;18.30;44.62
73692;BME280;61996;49.910;35.562;2022-11-20T00:06:36;99704.44;;;18.27;44.83
73692;BME280;61996;49.910;35.562;2022-11-20T00:09:39;99704.13;;;18.20;44.94
73692;BME280;61996;49.910;35.562;2022-11-20T00:12:43;99704.28;;;18.19;44.94
73692;BME280;61996;49.910;35.562;2022-11-20T00:15:46;99710.72;;;18.16;45.04
73692;BME280;61996;49.910;35.562;2022-11-20T00:18:49;99702.00;;;18.14;44.96
73692;BME280;61996;49.910;35.562;2022-11-20T00:21:52;99716.41;;;18.12;45.21
73692;BME280;61996;49.910;35.562;2022-11-20T00:24:56;99718.38;;;18.10;45.13
73692;BME280;61996;49.910;35.562;2022-11-20T00:28:01;99720.31;;;18.07;45.20
73692;BME280;61996;49.910;35.562;2022-11-20T00:31:04;99712.47;;;18.06;45.43
73692;BME280;61996;49.910;35.562;2022-11-20T00:34:07;99712.59;;;18.04;45.21
73692;BME280;61996;49.910;35.562;2022-11-20T00:37:10;99724.38;;;18.02;45.39
73692;BME280;61996;49.910;35.562;2022-11-20T00:40:12;99726.44;;;17.98;45.44
73692;BME280;61996;49.910;35.562;2022-11-20T00:43:17;99719.56;;;17.96;45.37
73692;BME280;61996;49.910;35.562;2022-11-20T00:46:21;99727.69;;;17.94;45.29
73692;BME280;61996;49.910;35.562;2022-11-20T00:49:24;99732.28;;;17.92;45.32
73692;BME280;61996;49.910;35.562;2022-11-20T00:52:27;99727.94;;;17.91;45.43
73692;BME280;61996;49.910;35.562;2022-11-20T00:55:29;99734.38;;;17.89;45.63
73692;BME280;61996;49.910;35.562;2022-11-20T00:58:34;99745.84;;;17.89;45.55
73692;BME280;61996;49.910;35.562;2022-11-20T01:01:38;99747.81;;;17.87;45.50
73692;BME280;61996;49.910;35.562;2022-11-20T01:04:40;99742.59;;;17.86;45.33
73692;BME280;61996;49.910;35.562;2022-11-20T01:07:43;99735.34;;;17.88;45.60
73692;BME280;61996;49.910;35.562;2022-11-20T01:10:46;99738.19;;;17.96;45.00
73692;BME280;61996;49.910;35.562;2022-11-20T01:13:51;99745.00;;;17.89;45.61
73692;BME280;61996;49.910;35.562;2022-11-20T01:16:54;99764.72;;;17.86;45.72
73692;BME280;61996;49.910;35.562;2022-11-20T01:19:57;99746.22;;;17.85;45.54
73692;BME280;61996;49.910;35.562;2022-11-20T01:23:00;99736.69;;;17.82;45.57
73692;BME280;61996;49.910;35.562;2022-11-20T01:26:03;99766.09;;;17.80;45.69
73692;BME280;61996;49.910;35.562;2022-11-20T01:29:08;99763.53;;;17.79;45.67
73692;BME280;61996;49.910;35.562;2022-11-20T01:32:15;99771.66;;;17.77;45.60
73692;BME280;61996;49.910;35.562;2022-11-20T01:35:17;99756.81;;;17.75;45.76
73692;BME280;61996;49.910;35.562;2022-11-20T01:38:20;99755.84;;;17.76;45.55
73692;BME280;61996;49.910;35.562;2022-11-20T01:41:24;99764.66;;;17.76;45.55
73692;BME280;61996;49.910;35.562;2022-11-20T01:44:56;99761.38;;;17.73;45.73
73692;BME280;61996;49.910;35.562;2022-11-20T01:47:59;99768.75;;;17.69;45.62
73692;BME280;61996;49.910;35.562;2022-11-20T01:51:02;99761.16;;;17.65;45.59
73692;BME280;61996;49.910;35.562;2022-11-20T01:54:06;99743.53;;;17.64;45.77
73692;BME280;61996;49.910;35.562;2022-11-20T01:57:10;99744.75;;;17.60;45.54
73692;BME280;61996;49.910;35.562;2022-11-20T02:00:17;99748.38;;;17.59;45.61
73692;BME280;61996;49.910;35.562;2022-11-20T02:03:20;99755.78;;;17.55;45.79
73692;BME280;61996;49.910;35.562;2022-11-20T02:06:23;99752.41;;;17.53;45.55
73692;BME280;61996;49.910;35.562;2022-11-20T02:09:27;99755.16;;;17.51;45.56
73692;BME280;61996;49.910;35.562;2022-11-20T02:12:30;99773.06;;;17.49;45.58
73692;BME280;61996;49.910;35.562;2022-11-20T02:15:55;99783.72;;;17.49;45.56
73692;BME280;61996;49.910;35.562;2022-11-20T02:18:58;99782.03;;;17.48;45.73
73692;BME280;61996;49.910;35.562;2022-11-20T02:22:02;99777.81;;;17.46;45.99
73692;BME280;61996;49.910;35.562;2022-11-20T02:25:08;99785.91;;;17.44;46.10
73692;BME280;61996;49.910;35.562;2022-11-20T02:28:12;99792.31;;;17.42;45.68
73692;BME280;61996;49.910;35.562;2022-11-20T02:31:15;99796.53;;;17.44;46.31
73692;BME280;61996;49.910;35.562;2022-11-20T02:34:18;99793.78;;;17.46;47.22
73692;BME280;61996;49.910;35.562;2022-11-20T02:37:21;99793.16;;;17.42;46.76
73692;BME280;61996;49.910;35.562;2022-11-20T02:40:25;99800.44;;;17.40;46.19
73692;BME280;61996;49.910;35.562;2022-11-20T02:43:28;99795.94;;;17.41;46.55
73692;BME280;61996;49.910;35.562;2022-11-20T02:46:31;99803.09;;;17.40;47.40
73692;BME280;61996;49.910;35.562;2022-11-20T02:49:34;99798.00;;;17.37;46.38
73692;BME280;61996;49.910;35.562;2022-11-20T02:52:37;99795.59;;;17.34;46.00
73692;BME280;61996;49.910;35.562;2022-11-20T02:55:41;99795.59;;;17.34;46.05
73692;BME280;61996;49.910;35.562;2022-11-20T02:58:44;99798.50;;;17.31;46.49
73692;BME280;61996;49.910;35.562;2022-11-20T03:01:47;99814.22;;;17.34;45.83
73692;BME280;61996;49.910;35.562;2022-11-20T03:04:50;99817.84;;;17.33;46.73
73692;BME280;61996;49.910;35.562;2022-11-20T03:07:52;99817.09;;;17.31;46.17
73692;BME280;61996;49.910;35.562;2022-11-20T03:10:57;99823.16;;;17.33;47.37
73692;BME280;61996;49.910;35.562;2022-11-20T03:14:04;99836.69;;;17.30;47.10
73692;BME280;61996;49.910;35.562;2022-11-20T03:17:07;99824.50;;;17.27;46.26
73692;BME280;61996;49.910;35.562;2022-11-20T03:20:10;99828.00;;;17.28;46.55
73692;BME280;61996;49.910;35.562;2022-11-20T03:23:13;99835.25;;;17.26;47.05
73692;BME280;61996;49.910;35.562;2022-11-20T03:26:18;99832.69;;;17.24;46.24
73692;BME280;61996;49.910;35.562;2022-11-20T03:29:21;99851.56;;;17.21;46.55
73692;BME280;61996;49.910;35.562;2022-11-20T03:32:24;99865.81;;;17.20;48.00
73692;BME280;61996;49.910;35.562;2022-11-20T03:35:27;99864.28;;;17.18;47.73
73692;BME280;61996;49.910;35.562;2022-11-20T03:38:30;99852.66;;;17.19;47.88
73692;BME280;61996;49.910;35.562;2022-11-20T03:41:36;99855.31;;;17.19;48.45
73692;BME280;61996;49.910;35.562;2022-11-20T03:44:39;99855.44;;;17.17;48.33
73692;BME280;61996;49.910;35.562;2022-11-20T03:47:42;99851.22;;;17.15;47.60
73692;BME280;61996;49.910;35.562;2022-11-20T03:50:45;99861.84;;;17.15;47.37
73692;BME280;61996;49.910;35.562;2022-11-20T03:53:49;99851.81;;;17.18;47.97
73692;BME280;61996;49.910;35.562;2022-11-20T03:56:54;99844.22;;;17.14;48.04
73692;BME280;61996;49.910;35.562;2022-11-20T03:59:57;99837.94;;;17.15;47.79
73692;BME280;61996;49.910;35.562;2022-11-20T04:03:00;99841.56;;;17.14;47.98
73692;BME280;61996;49.910;35.562;2022-11-20T04:06:03;99836.38;;;17.12;47.65
73692;BME280;61996;49.910;35.562;2022-11-20T04:09:06;99832.25;;;17.08;47.39
73692;BME280;61996;49.910;35.562;2022-11-20T04:12:10;99826.81;;;17.10;47.52
73692;BME280;61996;49.910;35.562;2022-11-20T04:15:14;99832.25;;;17.08;47.26
73692;BME280;61996;49.910;35.562;2022-11-20T04:18:17;99837.56;;;17.08;47.66
73692;BME280;61996;49.910;35.562;2022-11-20T04:21:20;99832.38;;;17.07;47.25
73692;BME280;61996;49.910;35.562;2022-11-20T04:24:23;99824.63;;;17.04;47.09
73692;BME280;61996;49.910;35.562;2022-11-20T04:27:28;99834.56;;;17.02;47.16
73692;BME280;61996;49.910;35.562;2022-11-20T04:30:30;99822.09;;;17.02;47.64
73692;BME280;61996;49.910;35.562;2022-11-20T04:33:33;99835.53;;;17.01;47.56
73692;BME280;61996;49.910;35.562;2022-11-20T04:36:36;99838.19;;;17.01;47.48
73692;BME280;61996;49.910;35.562;2022-11-20T04:39:39;99836.25;;;17.03;47.44
73692;BME280;61996;49.910;35.562;2022-11-20T04:42:43;99843.84;;;16.96;47.48
73692;BME280;61996;49.910;35.562;2022-11-20T04:45:50;99841.09;;;16.97;47.45
73692;BME280;61996;49.910;35.562;2022-11-20T04:48:52;99856.41;;;16.94;47.46
73692;BME280;61996;49.910;35.562;2022-11-20T04:51:55;99864.38;;;16.94;47.55
73692;BME280;61996;49.910;35.562;2022-11-20T04:54:58;99872.34;;;16.94;47.28
73692;BME280;61996;49.910;35.562;2022-11-20T04:58:02;99885.28;;;16.98;47.46
73692;BME280;61996;49.910;35.562;2022-11-20T05:01:05;99880.19;;;16.95;47.26
73692;BME280;61996;49.910;35.562;2022-11-20T05:04:09;99893.59;;;16.94;47.42
73692;BME280;61996;49.910;35.562;2022-11-20T05:07:11;99898.09;;;16.93;47.57
73692;BME280;61996;49.910;35.562;2022-11-20T05:10:15;99892.78;;;16.93;47.40
73692;BME280;61996;49.910;35.562;2022-11-20T05:13:19;99904.50;;;16.91;47.28
73692;BME280;61996;49.910;35.562;2022-11-20T05:16:22;99896.53;;;16.91;47.31
73692;BME280;61996;49.910;35.562;2022-11-20T05:19:25;99905.47;;;16.90;47.34
73692;BME280;61996;49.910;35.562;2022-11-20T05:22:28;99909.91;;;16.89;47.10
73692;BME280;61996;49.910;35.562;2022-11-20T05:25:31;99908.47;;;16.85;47.32
73692;BME280;61996;49.910;35.562;2022-11-20T05:28:35;99914.63;;;16.86;47.10
73692;BME280;61996;49.910;35.562;2022-11-20T05:31:38;99917.03;;;16.89;47.41
73692;BME280;61996;49.910;35.562;2022-11-20T05:34:41;99918.13;;;16.86;47.44
73692;BME280;61996;49.910;35.562;2022-11-20T05:37:44;99921.03;;;16.83;47.51
73692;BME280;61996;49.910;35.562;2022-11-20T05:40:47;99935.25;;;16.82;47.75
73692;BME280;61996;49.910;35.562;2022-11-20T05:43:51;99930.56;;;16.86;47.46
73692;BME280;61996;49.910;35.562;2022-11-20T05:46:54;99931.75;;;16.82;47.42
73692;BME280;61996;49.910;35.562;2022-11-20T05:49:57;99932.59;;;16.82;47.07
73692;BME280;61996;49.910;35.562;2022-11-20T05:52:59;99905.19;;;16.82;47.46
73692;BME280;61996;49.910;35.562;2022-11-20T05:56:03;99908.22;;;16.77;47.19
73692;BME280;61996;49.910;35.562;2022-11-20T05:59:08;99909.53;;;16.83;47.32
73692;BME280;61996;49.910;35.562;2022-11-20T06:02:11;99905.19;;;16.82;47.39
73692;BME280;61996;49.910;35.562;2022-11-20T06:05:15;99899.28;;;16.78;47.39
73692;BME280;61996;49.910;35.562;2022-11-20T06:08:18;99885.88;;;16.80;47.49
73692;BME280;61996;49.910;35.562;2022-11-20T06:11:21;99875.50;;;16.77;47.53
73692;BME280;61996;49.910;35.562;2022-11-20T06:14:25;99863.91;;;16.78;47.39
73692;BME280;61996;49.910;35.562;2022-11-20T06:17:28;99848.09;;;16.76;47.15
73692;BME280;61996;49.910;35.562;2022-11-20T06:20:31;99849.78;;;16.77;47.05
73692;BME280;61996;49.910;35.562;2022-11-20T06:23:41;99835.03;;;16.73;47.32
73692;BME280;61996;49.910;35.562;2022-11-20T06:26:46;99840.13;;;16.76;47.40
73692;BME280;61996;49.910;35.562;2022-11-20T06:29:50;99843.00;;;16.73;47.34
73692;BME280;61996;49.910;35.562;2022-11-20T06:32:53;99837.69;;;16.73;47.34
73692;BME280;61996;49.910;35.562;2022-11-20T06:35:56;99836.59;;;16.76;47.50
73692;BME280;61996;49.910;35.562;2022-11-20T06:39:02;99830.44;;;16.75;47.12
73692;BME280;61996;49.910;35.562;2022-11-20T06:42:05;99844.69;;;16.74;47.11
73692;BME280;61996;49.910;35.562;2022-11-20T06:45:10;99846.38;;;16.75;47.15
73692;BME280;61996;49.910;35.562;2022-11-20T06:48:13;99852.44;;;16.77;47.29
73692;BME280;61996;49.910;35.562;2022-11-20T06:51:16;99857.38;;;16.82;46.94
73692;BME280;61996;49.910;35.562;2022-11-20T06:54:19;99879.47;;;16.71;47.26
73692;BME280;61996;49.910;35.562;2022-11-20T06:57:22;99877.53;;;16.73;47.33
73692;BME280;61996;49.910;35.562;2022-11-20T07:00:26;99885.03;;;16.79;47.15
73692;BME280;61996;49.910;35.562;2022-11-20T07:03:29;99882.97;;;16.71;47.18
73692;BME280;61996;49.910;35.562;2022-11-20T07:06:31;99882.31;;;16.68;47.06
73692;BME280;61996;49.910;35.562;2022-11-20T07:09:34;99850.44;;;16.68;47.25
73692;BME280;61996;49.910;35.562;2022-11-20T07:12:37;99837.69;;;16.73;47.04
73692;BME280;61996;49.910;35.562;2022-11-20T07:15:41;99825.84;;;16.66;47.29
73692;BME280;61996;49.910;35.562;2022-11-20T07:18:44;99831.16;;;16.66;47.18
73692;BME280;61996;49.910;35.562;2022-11-20T07:21:51;99835.38;;;16.68;47.17
73692;BME280;61996;49.910;35.562;2022-11-20T07:24:54;99841.66;;;16.67;47.29
73692;BME280;61996;49.910;35.562;2022-11-20T07:27:57;99845.28;;;16.66;47.28
73692;BME280;61996;49.910;35.562;2022-11-20T07:31:01;99843.31;;;16.68;47.14
73692;BME280;61996;49.910;35.562;2022-11-20T07:34:04;99855.19;;;16.64;47.20
73692;BME280;61996;49.910;35.562;2022-11-20T07:37:07;99861.91;;;16.68;47.13
73692;BME280;61996;49.910;35.562;2022-11-20T07:40:11;99853.50;;;16.63;47.39
73692;BME280;61996;49.910;35.562;2022-11-20T07:43:14;99843.72;;;16.64;47.05
73692;BME280;61996;49.910;35.562;2022-11-20T07:46:18;99846.94;;;16.67;47.25
73692;BME280;61996;49.910;35.562;2022-11-20T07:49:22;99845.41;;;16.65;47.09
73692;BME280;61996;49.910;35.562;2022-11-20T07:52:25;99846.94;;;16.67;47.14
73692;BME280;61996;49.910;35.562;2022-11-20T07:55:28;99848.53;;;16.59;47.14
73692;BME280;61996;49.910;35.562;2022-11-20T07:58:30;99828.75;;;16.63;47.21
73692;BME280;61996;49.910;35.562;2022-11-20T08:01:35;99839.25;;;16.64;47.02
73692;BME280;61996;49.910;35.562;2022-11-20T08:04:38;99831.28;;;16.64;46.97
73692;BME280;61996;49.910;35.562;2022-11-20T08:07:42;99822.59;;;16.62;46.92
73692;BME280;61996;49.910;35.562;2022-11-20T08:10:45;99819.94;;;16.62;46.96
73692;BME280;61996;49.910;35.562;2022-11-20T08:13:48;99816.91;;;16.67;46.95
73692;BME280;61996;49.910;35.562;2022-11-20T08:17:09;99806.66;;;16.62;47.07
73692;BME280;61996;49.910;35.562;2022-11-20T08:20:12;99803.38;;;16.59;47.33
73692;BME280;61996;49.910;35.562;2022-11-20T08:23:15;99805.06;;;16.60;47.48
73692;BME280;61996;49.910;35.562;2022-11-20T08:26:18;99794.69;;;16.57;47.21
73692;BME280;61996;49.910;35.562;2022-11-20T08:29:21;99792.28;;;16.54;47.70
73692;BME280;61996;49.910;35.562;2022-11-20T08:32:25;99798.56;;;16.53;47.48
73692;BME280;61996;49.910;35.562;2022-11-20T08:35:28;99796.75;;;16.53;47.69
73692;BME280;61996;49.910;35.562;2022-11-20T08:38:34;99793.13;;;16.54;47.67
73692;BME280;61996;49.910;35.562;2022-11-20T08:41:37;99791.31;;;16.66;46.93
73692;BME280;61996;49.910;35.562;2022-11-20T08:44:40;99792.06;;;16.57;47.42
73692;BME280;61996;49.910;35.562;2022-11-20T08:47:45;99789.41;;;16.57;47.37
73692;BME280;61996;49.910;35.562;2022-11-20T08:50:48;99778.53;;;16.60;47.04
73692;BME280;61996;49.910;35.562;2022-11-20T08:53:51;99768.16;;;16.57;47.29
73692;BME280;61996;49.910;35.562;2022-11-20T08:56:54;99765.00;;;16.52;47.69
73692;BME280;61996;49.910;35.562;2022-11-20T08:59:57;99756.69;;;16.56;47.35
73692;BME280;61996;49.910;35.562;2022-11-20T09:03:08;99746.69;;;16.49;47.47
73692;BME280;61996;49.910;35.562;2022-11-20T09:06:11;99748.81;;;16.55;47.23
73692;BME280;61996;49.910;35.562;2022-11-20T09:09:14;99746.66;;;16.60;47.14
73692;BME280;61996;49.910;35.562;2022-11-20T09:12:17;99748.25;;;16.51;47.49
73692;BME280;61996;49.910;35.562;2022-11-20T09:15:19;99745.22;;;16.56;47.31
73692;BME280;61996;49.910;35.562;2022-11-20T09:18:24;99751.59;;;16.53;47.12
73692;BME280;61996;49.910;35.562;2022-11-20T09:21:27;99743.78;;;16.52;47.29
73692;BME280;61996;49.910;35.562;2022-11-20T09:24:30;99754.66;;;16.49;47.43
73692;BME280;61996;49.910;35.562;2022-11-20T09:27:33;99737.75;;;16.50;47.22
73692;BME280;61996;49.910;35.562;2022-11-20T09:30:37;99746.78;;;16.47;47.34
73692;BME280;61996;49.910;35.562;2022-11-20T09:33:41;99748.59;;;16.47;47.24
73692;BME280;61996;49.910;35.562;2022-11-20T09:36:44;99753.06;;;16.46;47.50
73692;BME280;61996;49.910;35.562;2022-11-20T09:39:47;99751.88;;;16.50;47.19
73692;BME280;61996;49.910;35.562;2022-11-20T09:42:52;99761.50;;;16.51;47.25
73692;BME280;61996;49.910;35.562;2022-11-20T09:46:00;99758.03;;;16.73;46.41
73692;BME280;61996;49.910;35.562;2022-11-20T09:49:14;99763.91;;;16.54;47.08
73692;BME280;61996;49.910;35.562;2022-11-20T09:52:22;99770.78;;;16.45;47.39
73692;BME280;61996;49.910;35.562;2022-11-20T09:55:28;99771.63;;;16.46;47.38
73692;BME280;61996;49.910;35.562;2022-11-20T09:58:33;99765.00;;;16.40;47.43
73692;BME280;61996;49.910;35.562;2022-11-20T10:01:37;99761.50;;;16.51;47.10
73692;BME280;61996;49.910;35.562;2022-11-20T10:04:44;99745.44;;;16.53;47.14
73692;BME280;61996;49.910;35.562;2022-11-20T10:07:51;99756.06;;;16.53;47.12
73692;BME280;61996;49.910;35.562;2022-11-20T10:10:59;99760.19;;;16.57;47.02
73692;BME280;61996;49.910;35.562;2022-11-20T10:14:10;99764.16;;;16.51;47.33
73692;BME280;61996;49.910;35.562;2022-11-20T10:17:21;99758.13;;;16.49;47.07
73692;BME280;61996;49.910;35.562;2022-11-20T10:20:29;99758.72;;;16.53;47.07
73692;BME280;61996;49.910;35.562;2022-11-20T10:23:45;99757.31;;;16.49;47.06
73692;BME280;61996;49.910;35.562;2022-11-20T10:26:55;99753.81;;;16.48;47.27
73692;BME280;61996;49.910;35.562;2022-11-20T10:30:00;99748.50;;;16.48;47.30
73692;BME280;61996;49.910;35.562;2022-11-20T10:33:03;99751.38;;;16.45;47.40
73692;BME280;61996;49.910;35.562;2022-11-20T10:36:12;99749.81;;;16.42;47.39
73692;BME280;61996;49.910;35.562;2022-11-20T10:39:17;99743.53;;;16.43;47.03
73692;BME280;61996;49.910;35.562;2022-11-20T10:42:25;99735.22;;;16.37;47.26
73692;BME280;61996;49.910;35.562;2022-11-20T10:48:53;99745.34;;;16.32;47.63
73692;BME280;61996;49.910;35.562;2022-11-20T10:51:59;99748.47;;;16.37;47.59
73692;BME280;61996;49.910;35.562;2022-11-20T10:55:06;99757.41;;;16.36;47.36
73692;BME280;61996;49.910;35.562;2022-11-20T10:58:14;99738.44;;;16.40;47.18
73692;BME280;61996;49.910;35.562;2022-11-20T11:01:20;99733.66;;;16.34;47.57
73692;BME280;61996;49.910;35.562;2022-11-20T11:04:30;99733.41;;;16.37;47.18
73692;BME280;61996;49.910;35.562;2022-11-20T11:07:36;99725.78;;;16.33;47.51
73692;BME280;61996;49.910;35.562;2022-11-20T11:10:42;99719.88;;;16.40;47.24
73692;BME280;61996;49.910;35.562;2022-11-20T11:13:47;99706.50;;;16.31;47.54
73692;BME280;61996;49.910;35.562;2022-11-20T11:16:50;99710.13;;;16.30;47.55
73692;BME280;61996;49.910;35.562;2022-11-20T11:20:00;99705.41;;;16.33;47.53
73692;BME280;61996;49.910;35.562;2022-11-20T11:23:05;99711.53;;;16.34;47.30
73692;BME280;61996;49.910;35.562;2022-11-20T11:26:18;99709.75;;;16.34;47.43
73692;BME280;61996;49.910;35.562;2022-11-20T11:29:21;99715.16;;;16.33;47.42
73692;BME280;61996;49.910;35.562;2022-11-20T11:32:25;99718.66;;;16.33;47.36
73692;BME280;61996;49.910;35.562;2022-11-20T11:35:28;99706.13;;;16.35;47.64
73692;BME280;61996;49.910;35.562;2022-11-20T11:38:34;99703.09;;;16.40;47.48
73692;BME280;61996;49.910;35.562;2022-11-20T11:41:38;99691.63;;;16.39;47.41
73692;BME280;61996;49.910;35.562;2022-11-20T11:44:43;99681.03;;;16.39;47.29
73692;BME280;61996;49.910;35.562;2022-11-20T11:48:12;99681.25;;;16.48;45.94
73692;BME280;61996;49.910;35.562;2022-11-20T11:51:19;99662.09;;;16.55;46.26
73692;BME280;61996;49.910;35.562;2022-11-20T11:54:24;99661.84;;;16.47;46.39
73692;BME280;61996;49.910;35.562;2022-11-20T11:57:28;99655.19;;;16.53;45.71
73692;BME280;61996;49.910;35.562;2022-11-20T12:00:34;99656.75;;;16.66;45.76
73692;BME280;61996;49.910;35.562;2022-11-20T12:03:38;99657.13;;;16.51;46.49
73692;BME280;61996;49.910;35.562;2022-11-20T12:06:43;99658.34;;;16.47;46.27
73692;BME280;61996;49.910;35.562;2022-11-20T12:09:48;99644.44;;;16.77;45.95
73692;BME280;61996;49.910;35.562;2022-11-20T12:12:53;99634.19;;;16.72;45.87
73692;BME280;61996;49.910;35.562;2022-11-20T12:15:57;99633.19;;;16.84;45.81
73692;BME280;61996;49.910;35.562;2022-11-20T12:19:00;99629.13;;;17.01;45.54
73692;BME280;61996;49.910;35.562;2022-11-20T12:22:05;99626.34;;;17.03;45.74
73692;BME280;61996;49.910;35.562;2022-11-20T12:25:14;99634.00;;;17.17;45.37
73692;BME280;61996;49.910;35.562;2022-11-20T12:28:22;99619.50;;;17.21;45.50
73692;BME280;61996;49.910;35.562;2022-11-20T12:31:35;99610.75;;;17.30;45.15
73692;BME280;61996;49.910;35.562;2022-11-20T12:34:47;99600.59;;;17.35;45.18
73692;BME280;61996;49.910;35.562;2022-11-20T12:37:57;99593.06;;;17.40;45.01
73692;BME280;61996;49.910;35.562;2022-11-20T12:41:10;99597.88;;;17.46;44.80
73692;BME280;61996;49.910;35.562;2022-11-20T12:44:40;99577.03;;;17.51;44.56
73692;BME280;61996;49.910;35.562;2022-11-20T12:48:11;99576.63;;;17.56;44.78
73692;BME280;61996;49.910;35.562;2022-11-20T12:51:39;99564.03;;;17.58;44.67
73692;BME280;61996;49.910;35.562;2022-11-20T12:55:04;99562.69;;;17.64;44.52
73692;BME280;61996;49.910;35.562;2022-11-20T12:58:15;99563.38;;;17.66;44.49
73692;BME280;61996;49.910;35.562;2022-11-20T13:01:22;99550.81;;;17.68;44.41
73692;BME280;61996;49.910;35.562;2022-11-20T13:04:47;99546.09;;;17.71;44.40
73692;BME280;61996;49.910;35.562;2022-11-20T13:07:53;99554.66;;;17.75;44.45
73692;BME280;61996;49.910;35.562;2022-11-20T13:10:58;99549.19;;;17.76;44.48
73692;BME280;61996;49.910;35.562;2022-11-20T13:14:07;99551.00;;;17.76;44.42
73692;BME280;61996;49.910;35.562;2022-11-20T13:17:14;99547.22;;;17.78;44.60
73692;BME280;61996;49.910;35.562;2022-11-20T13:20:20;99555.81;;;17.82;44.26
73692;BME280;61996;49.910;35.562;2022-11-20T13:23:23;99547.22;;;17.78;44.05
73692;BME280;61996;49.910;35.562;2022-11-20T13:26:27;99542.50;;;17.82;44.44
73692;BME280;61996;49.910;35.562;2022-11-20T13:29:31;99546.00;;;17.83;44.33
73692;BME280;61996;49.910;35.562;2022-11-20T13:32:35;99538.31;;;17.89;44.30
73692;BME280;61996;49.910;35.562;2022-11-20T13:35:40;99536.38;;;17.91;44.02
73692;BME280;61996;49.910;35.562;2022-11-20T13:38:44;99538.19;;;17.91;44.11
73692;BME280;61996;49.910;35.562;2022-11-20T13:41:53;99534.81;;;17.89;44.16
73692;BME280;61996;49.910;35.562;2022-11-20T13:45:00;99539.91;;;18.01;44.16
73692;BME280;61996;49.910;35.562;2022-11-20T13:48:04;99528.69;;;17.98;44.05
73692;BME280;61996;49.910;35.562;2022-11-20T13:51:22;99523.94;;;18.01;44.14
73692;BME280;61996;49.910;35.562;2022-11-20T13:57:56;99524.81;;;18.12;44.10
73692;BME280;61996;49.910;35.562;2022-11-20T14:01:08;99514.00;;;18.13;44.07
73692;BME280;61996;49.910;35.562;2022-11-20T14:04:13;99507.72;;;18.14;44.07
73692;BME280;61996;49.910;35.562;2022-11-20T14:07:18;99511.63;;;18.10;44.00
73692;BME280;61996;49.910;35.562;2022-11-20T14:10:23;99511.94;;;18.17;44.01
73692;BME280;61996;49.910;35.562;2022-11-20T14:13:32;99508.28;;;18.18;44.00
73692;BME280;61996;49.910;35.562;2022-11-20T14:16:36;99510.25;;;18.16;43.98
73692;BME280;61996;49.910;35.562;2022-11-20T14:19:40;99503.41;;;18.23;43.81
73692;BME280;61996;49.910;35.562;2022-11-20T14:22:47;99505.78;;;18.16;43.64
73692;BME280;61996;49.910;35.562;2022-11-20T14:25:50;99499.31;;;18.19;44.04
73692;BME280;61996;49.910;35.562;2022-11-20T14:28:53;99492.16;;;18.19;43.64
73692;BME280;61996;49.910;35.562;2022-11-20T14:31:58;99487.00;;;18.18;44.00
73692;BME280;61996;49.910;35.562;2022-11-20T14:35:02;99492.03;;;18.21;43.75
73692;BME280;61996;49.910;35.562;2022-11-20T14:38:09;99496.66;;;18.19;43.72
73692;BME280;61996;49.910;35.562;2022-11-20T14:41:18;99484.19;;;18.19;43.68
73692;BME280;61996;49.910;35.562;2022-11-20T14:44:24;99488.97;;;18.25;43.70
73692;BME280;61996;49.910;35.562;2022-11-20T14:47:30;99473.56;;;18.29;43.43
73692;BME280;61996;49.910;35.562;2022-11-20T14:50:34;99470.63;;;18.32;43.40
73692;BME280;61996;49.910;35.562;2022-11-20T14:53:37;99463.75;;;18.29;43.55
73692;BME280;61996;49.910;35.562;2022-11-20T14:56:40;99468.78;;;18.32;43.69
73692;BME280;61996;49.910;35.562;2022-11-20T14:59:43;99458.00;;;18.34;43.79
73692;BME280;61996;49.910;35.562;2022-11-20T15:02:48;99453.41;;;18.36;43.60
73692;BME280;61996;49.910;35.562;2022-11-20T15:05:51;99446.50;;;18.33;43.63
73692;BME280;61996;49.910;35.562;2022-11-20T15:08:54;99440.91;;;18.37;43.51
73692;BME280;61996;49.910;35.562;2022-11-20T15:11:57;99439.09;;;18.37;43.66
73692;BME280;61996;49.910;35.562;2022-11-20T15:15:01;99429.00;;;18.41;43.29
73692;BME280;61996;49.910;35.562;2022-11-20T15:18:09;99433.22;;;18.43;43.06
73692;BME280;61996;49.910;35.562;2022-11-20T15:21:13;99427.03;;;18.43;43.55
73692;BME280;61996;49.910;35.562;2022-11-20T15:24:17;99420.84;;;18.42;43.44
73692;BME280;61996;49.910;35.562;2022-11-20T15:27:19;99427.44;;;18.48;43.38
73692;BME280;61996;49.910;35.562;2022-11-20T15:30:22;99423.09;;;18.47;43.46
73692;BME280;61996;49.910;35.562;2022-11-20T15:33:27;99421.28;;;18.47;43.41
73692;BME280;61996;49.910;35.562;2022-11-20T15:36:30;99413.97;;;18.49;43.31
73692;BME280;61996;49.910;35.562;2022-11-20T15:39:33;99396.91;;;18.52;43.32
73692;BME280;61996;49.910;35.562;2022-11-20T15:42:35;99404.06;;;18.51;43.29
73692;BME280;61996;49.910;35.562;2022-11-20T15:45:39;99409.09;;;18.54;43.10
73692;BME280;61996;49.910;35.562;2022-11-20T15:48:44;99414.41;;;18.54;43.35
73692;BME280;61996;49.910;35.562;2022-11-20T15:51:49;99411.59;;;18.56;43.28
73692;BME280;61996;49.910;35.562;2022-11-20T15:54:54;99403.75;;;18.54;43.40
73692;BME280;61996;49.910;35.562;2022-11-20T15:57:56;99398.16;;;18.57;43.31
73692;BME280;61996;49.910;35.562;2022-11-20T16:01:00;99395.19;;;18.60;43.12
73692;BME280;61996;49.910;35.562;2022-11-20T16:04:07;99389.03;;;18.60;43.29
73692;BME280;61996;49.910;35.562;2022-11-20T16:07:12;99384.13;;;18.65;43.16
73692;BME280;61996;49.910;35.562;2022-11-20T16:10:15;99363.81;;;18.64;43.22
73692;BME280;61996;49.910;35.562;2022-11-20T16:13:18;99363.81;;;18.64;43.51